Time;durP1;ratioP1;P1;durP2;ratioP2;P2;SDS_P1;SDS_P2;PMS_P1;PMS_P2;Temp;Humidity;BMP_temperature;BMP_pressure;BME280_temperature;BME280_humidity;BME280_pressure;Samples;Min_cycle;Max_cycle;Signal;HPM_P1;HPM_P2
2023/09/28 00:01:59;;;;;;;27.30;9.60;;;;;;;18.85;82.13;101134.16;5015335;57;1140864;-72
2023/09/28 00:07:04;;;;;;;19.07;8.88;;;;;;;18.80;82.17;101134.28;5088118;56;1141047;-71
2023/09/28 00:12:10;;;;;;;12.73;9.23;;;;;;;18.73;82.29;101130.06;5118883;56;1140753;-71
2023/09/28 00:17:16;;;;;;;19.05;9.55;;;;;;;18.68;82.41;101134.20;5023034;56;1151387;-72
2023/09/28 00:22:22;;;;;;;25.15;9.65;;;;;;;18.58;82.55;101134.28;5010357;57;1140731;-71
2023/09/28 00:27:27;;;;;;;22.00;9.83;;;;;;;18.49;82.71;101136.53;5028259;57;1140788;-72
2023/09/28 00:32:33;;;;;;;24.37;10.25;;;;;;;18.40;83.20;101129.44;5006262;57;1140892;-73
2023/09/28 00:37:39;;;;;;;25.48;11.78;;;;;;;18.35;83.51;101133.91;4995636;57;1142992;-73
2023/09/28 00:42:50;;;;;;;18.87;9.90;;;;;;;18.34;83.71;101126.02;5004390;56;1143027;-72
2023/09/28 00:48:02;;;;;;;26.27;10.87;;;;;;;18.31;83.76;101125.02;5098932;56;1140646;-73
2023/09/28 00:53:09;;;;;;;30.88;11.97;;;;;;;18.22;83.70;101126.77;5079046;56;1142803;-72
2023/09/28 00:58:16;;;;;;;25.40;11.50;;;;;;;18.15;84.00;101120.36;5062794;56;1142882;-74
2023/09/28 01:03:22;;;;;;;18.77;10.72;;;;;;;18.07;84.24;101114.41;5083218;56;1143062;-71
2023/09/28 01:08:27;;;;;;;22.43;11.37;;;;;;;17.99;84.50;101109.49;5079921;56;1143238;-72
2023/09/28 01:13:33;;;;;;;23.00;11.43;;;;;;;17.93;84.87;101112.27;5079331;56;1152728;-72
2023/09/28 01:18:39;;;;;;;29.40;11.50;;;;;;;17.90;85.26;101110.73;5078517;56;1143088;-72
2023/09/28 01:23:45;;;;;;;24.50;11.78;;;;;;;17.90;85.82;101108.06;5118589;56;1143152;-73
2023/09/28 01:28:51;;;;;;;24.32;12.60;;;;;;;17.86;85.99;101106.70;5175618;55;1143078;-72
2023/09/28 01:33:56;;;;;;;17.23;10.32;;;;;;;17.84;86.41;101095.80;5185606;55;1143013;-72
2023/09/28 01:39:07;;;;;;;22.17;12.58;;;;;;;17.80;86.58;101092.58;5205594;55;1143198;-72
2023/09/28 01:44:12;;;;;;;20.57;11.80;;;;;;;17.75;87.15;101091.34;5184518;56;1142877;-73
2023/09/28 01:49:18;;;;;;;24.00;11.17;;;;;;;17.65;87.32;101086.06;5185104;56;1143078;-71
2023/09/28 01:54:24;;;;;;;27.45;12.78;;;;;;;17.61;87.96;101083.30;5118976;56;1142888;-73
2023/09/28 01:59:29;;;;;;;19.20;11.83;;;;;;;17.58;88.41;101079.59;5105675;56;1143111;-73
2023/09/28 02:04:39;;;;;;;23.33;12.27;;;;;;;17.55;89.01;101077.23;5109529;56;1142934;-73
2023/09/28 02:09:44;;;;;;;21.57;13.23;;;;;;;17.55;89.01;101077.23;5109923;55;1142947;-72
2023/09/28 02:14:51;;;;;;;20.07;13.40;;;;;;;17.51;89.43;101072.68;5124023;56;1142855;-71
2023/09/28 02:19:57;;;;;;;21.60;13.72;;;;;;;17.44;89.73;101068.91;5105324;55;1142946;-73
2023/09/28 02:25:03;;;;;;;22.57;13.10;;;;;;;17.39;90.40;101069.88;5017381;55;1142784;-72
2023/09/28 02:30:11;;;;;;;19.10;12.40;;;;;;;17.27;91.24;101063.52;4930734;58;1143231;-72
2023/09/28 02:35:18;;;;;;;18.67;13.50;;;;;;;17.28;91.47;101066.05;5073826;56;1149631;-73
2023/09/28 02:40:24;;;;;;;26.10;14.07;;;;;;;17.30;91.68;101065.90;5063264;56;1142979;-71
2023/09/28 02:45:29;;;;;;;26.70;13.70;;;;;;;17.32;92.04;101061.25;5099085;56;1142807;-71
2023/09/28 02:50:35;;;;;;;43.55;14.43;;;;;;;17.31;92.17;101062.23;5146077;55;1143160;-72
2023/09/28 02:55:41;;;;;;;27.27;14.50;;;;;;;17.25;92.72;101064.19;5164305;55;1143006;-71
2023/09/28 03:00:46;;;;;;;30.63;13.83;;;;;;;17.21;93.86;101067.16;5164734;55;1143301;-72
2023/09/28 03:05:59;;;;;;;32.60;13.10;;;;;;;17.19;94.48;101069.12;5185156;55;1142856;-72
2023/09/28 03:11:00;;;;;;;24.70;14.17;;;;;;;17.20;94.95;101065.47;5163153;55;1142827;-72
2023/09/28 03:16:07;;;;;;;22.60;14.10;;;;;;;17.20;95.42;101065.95;5108547;55;1142994;-73
2023/09/28 03:21:13;;;;;;;22.33;12.37;;;;;;;17.15;95.88;101068.22;5172076;55;1143044;-70
2023/09/28 03:26:19;;;;;;;27.40;12.97;;;;;;;17.15;96.62;101064.22;5144256;55;1142838;-73
2023/09/28 03:31:28;;;;;;;20.57;12.83;;;;;;;17.16;96.92;101069.42;5164362;55;1143096;-73
2023/09/28 03:36:34;;;;;;;22.77;14.15;;;;;;;17.23;97.28;101080.38;5183693;55;1143075;-71
2023/09/28 03:41:40;;;;;;;30.50;15.03;;;;;;;17.22;97.37;101074.19;5164456;56;1143103;-72
2023/09/28 03:46:45;;;;;;;27.98;12.93;;;;;;;17.16;97.75;101068.08;5164566;55;1142984;-71
2023/09/28 03:51:51;;;;;;;22.13;13.67;;;;;;;17.07;97.89;101066.30;5184935;55;1143012;-72
2023/09/28 03:56:58;;;;;;;20.43;13.67;;;;;;;17.01;99.19;101058.87;5101913;55;1143008;-72
2023/09/28 04:02:04;;;;;;;19.13;13.20;;;;;;;16.96;100.00;101065.14;5078313;56;1143039;-73
2023/09/28 04:07:09;;;;;;;23.70;13.27;;;;;;;16.90;100.00;101062.22;5098639;56;1145398;-73
2023/09/28 04:12:15;;;;;;;25.63;13.40;;;;;;;16.91;100.00;101059.91;5146386;55;1144900;-72
2023/09/28 04:17:21;;;;;;;27.30;15.20;;;;;;;16.89;100.00;101057.37;5079781;56;1145090;-71
2023/09/28 04:22:26;;;;;;;26.05;14.68;;;;;;;16.85;100.00;101054.64;4949633;57;1145294;-73
2023/09/28 04:27:32;;;;;;;30.70;14.30;;;;;;;16.84;100.00;101055.62;5077832;56;1145096;-72
2023/09/28 04:32:38;;;;;;;30.60;13.97;;;;;;;16.83;100.00;101050.77;5078014;56;1145236;-71
2023/09/28 04:37:43;;;;;;;23.10;13.00;;;;;;;16.82;100.00;101049.09;5078589;56;1144865;-72
2023/09/28 04:42:49;;;;;;;22.73;15.43;;;;;;;16.79;100.00;101043.22;5055167;57;1144930;-72
2023/09/28 04:47:55;;;;;;;29.27;15.37;;;;;;;16.78;100.00;101041.53;4975159;56;1144888;-72
2023/09/28 04:53:01;;;;;;;30.13;14.70;;;;;;;16.76;100.00;101043.51;5078435;57;1144996;-74
2023/09/28 04:58:06;;;;;;;30.90;14.27;;;;;;;16.70;100.00;101046.75;5099217;56;1144860;-72
2023/09/28 05:03:12;;;;;;;30.60;14.47;;;;;;;16.65;100.00;101053.04;5078818;56;1144932;-72
2023/09/28 05:08:17;;;;;;;23.03;14.80;;;;;;;16.60;100.00;101052.59;5078517;56;1145005;-75
2023/09/28 05:13:26;;;;;;;29.83;15.10;;;;;;;16.57;100.00;101048.38;5016351;56;1145233;-75
2023/09/28 05:18:32;;;;;;;25.50;15.88;;;;;;;16.60;100.00;101052.09;4915398;58;1145053;-74
2023/09/28 05:23:38;;;;;;;30.68;16.02;;;;;;;16.57;100.00;101046.20;4916030;58;1145249;-73
2023/09/28 05:28:44;;;;;;;25.72;14.78;;;;;;;16.53;100.00;101049.15;4915129;57;1145170;-72
2023/09/28 05:33:50;;;;;;;35.10;15.67;;;;;;;16.53;100.00;101047.81;4935325;57;1145518;-75
2023/09/28 05:38:55;;;;;;;28.30;15.90;;;;;;;16.55;100.00;101046.34;4952971;57;1145180;-75
2023/09/28 05:44:01;;;;;;;23.40;13.90;;;;;;;16.67;100.00;101049.70;4995801;57;1145327;-75
2023/09/28 05:49:07;;;;;;;30.47;16.77;;;;;;;16.83;100.00;101048.59;5055824;57;1144941;-73
2023/09/28 05:54:13;;;;;;;28.67;16.30;;;;;;;17.04;100.00;101055.06;5078780;56;1145026;-73
2023/09/28 05:59:19;;;;;;;20.13;15.67;;;;;;;17.26;100.00;101061.37;5077821;56;1145154;-75
2023/09/28 06:04:25;;;;;;;20.47;13.63;;;;;;;17.40;100.00;101062.20;5097412;56;1145158;-72
2023/09/28 06:09:30;;;;;;;24.92;15.13;;;;;;;17.58;100.00;101063.05;5077634;56;1145113;-72
2023/09/28 06:14:36;;;;;;;22.60;15.53;;;;;;;17.76;100.00;101060.92;5049711;55;1145123;-74
2023/09/28 06:19:41;;;;;;;27.30;16.40;;;;;;;17.97;100.00;101057.95;5164839;55;1144878;-74
2023/09/28 06:24:48;;;;;;;20.97;14.00;;;;;;;18.20;100.00;101062.66;5183338;55;1144773;-76
2023/09/28 06:29:53;;;;;;;23.37;15.57;;;;;;;18.41;100.00;101074.88;5166195;55;1144850;-73
2023/09/28 06:34:59;;;;;;;24.05;14.80;;;;;;;18.63;100.00;101074.91;5118883;56;1145318;-75
2023/09/28 06:40:06;;;;;;;26.53;16.13;;;;;;;18.72;100.00;101076.63;5035027;57;1145156;-74
2023/09/28 06:45:12;;;;;;;32.17;16.85;;;;;;;18.92;100.00;101078.09;5013933;56;1145325;-75
2023/09/28 06:50:18;;;;;;;23.60;15.38;;;;;;;19.08;100.00;101072.82;5075464;56;1145133;-75
2023/09/28 06:55:23;;;;;;;30.92;14.78;;;;;;;19.27;100.00;101069.86;5118864;56;1145196;-75
2023/09/28 07:00:29;;;;;;;17.62;13.28;;;;;;;19.56;100.00;101070.82;5101332;56;1145019;-76
2023/09/28 07:05:35;;;;;;;66.82;15.30;;;;;;;19.79;100.00;101074.23;5047614;56;1144874;-73
2023/09/28 07:10:41;;;;;;;26.70;14.15;;;;;;;19.83;100.00;101075.09;5097443;56;1145239;-74
2023/09/28 07:15:47;;;;;;;19.42;13.55;;;;;;;20.03;99.95;101074.25;5060730;56;1145197;-73
2023/09/28 07:20:53;;;;;;;19.52;12.95;;;;;;;20.21;100.00;101072.75;5014764;56;1143047;-73
2023/09/28 07:26:00;;;;;;;20.32;13.05;;;;;;;20.31;98.01;101073.45;5087311;56;1145010;-73
2023/09/28 07:31:06;;;;;;;17.66;11.22;;;;;;;20.55;98.89;101077.48;5075941;56;1142624;-72
2023/09/28 07:36:12;;;;;;;19.40;12.80;;;;;;;20.79;98.37;101081.95;5075175;56;1142923;-73
2023/09/28 07:41:18;;;;;;;21.87;11.20;;;;;;;21.06;97.12;101080.72;4991418;57;1142962;-71
2023/09/28 07:46:23;;;;;;;18.55;11.10;;;;;;;21.44;96.35;101084.45;4993926;58;1143501;-75
2023/09/28 07:51:29;;;;;;;21.95;11.50;;;;;;;21.70;93.50;101073.36;5160621;55;1143246;-72
2023/09/28 07:56:36;;;;;;;18.93;11.17;;;;;;;21.84;91.95;101071.27;5163102;55;1143056;-74
2023/09/28 08:01:42;;;;;;;22.37;10.80;;;;;;;22.03;90.94;101069.97;5163954;55;1143147;-74
2023/09/28 08:06:48;;;;;;;19.75;10.28;;;;;;;22.12;88.61;101075.64;5184098;55;1142943;-74
2023/09/28 08:11:53;;;;;;;17.25;9.40;;;;;;;22.29;88.17;101063.71;5126780;55;1142925;-72
2023/09/28 08:16:59;;;;;;;14.35;9.38;;;;;;;22.50;86.48;101072.94;5031255;56;1140809;-74
2023/09/28 08:22:05;;;;;;;15.50;9.13;;;;;;;22.67;84.66;101074.45;5034252;56;1140703;-75
2023/09/28 08:27:11;;;;;;;14.70;7.65;;;;;;;22.88;86.39;101071.08;4995833;57;1140602;-74
2023/09/28 08:32:16;;;;;;;16.60;8.53;;;;;;;23.09;84.35;101077.37;5029350;57;1140824;-75
2023/09/28 08:37:24;;;;;;;16.60;7.42;;;;;;;23.40;86.28;101077.16;5015873;57;1141006;-75
2023/09/28 08:42:31;;;;;;;12.13;8.23;;;;;;;23.59;83.41;101081.67;4996942;57;1140814;-73
2023/09/28 08:47:41;;;;;;;12.47;7.57;;;;;;;23.84;84.84;101076.23;4996110;57;1140831;-75
2023/09/28 08:52:47;;;;;;;14.98;6.22;;;;;;;24.08;82.35;101074.52;5077840;56;1140736;-75
2023/09/28 08:57:53;;;;;;;16.73;6.65;;;;;;;24.23;78.56;101063.66;5041790;56;1140864;-76
2023/09/28 09:03:00;;;;;;;10.13;6.45;;;;;;;24.44;73.53;101064.95;5078977;56;1140657;-75
2023/09/28 09:08:06;;;;;;;8.63;6.03;;;;;;;24.43;72.24;101067.37;5043216;57;1140904;-75
2023/09/28 09:13:22;;;;;;;19.55;7.37;;;;;;;24.45;72.26;101060.39;5093715;56;1138665;-75
2023/09/28 09:18:27;;;;;;;20.23;7.35;;;;;;;24.48;71.97;101055.42;4996261;57;1140782;-74
2023/09/28 09:23:33;;;;;;;9.43;6.67;;;;;;;24.58;69.22;101060.52;4927059;57;1140906;-75
2023/09/28 09:28:43;;;;;;;16.50;5.62;;;;;;;24.65;69.35;101059.19;4915180;57;1138775;-75
2023/09/28 09:33:46;;;;;;;14.80;6.65;;;;;;;24.77;68.73;101051.67;5012094;57;1140512;-73
2023/09/28 09:38:53;;;;;;;15.23;5.97;;;;;;;24.82;66.93;101049.21;4935159;57;1140917;-75
2023/09/28 09:44:00;;;;;;;16.07;5.72;;;;;;;24.87;66.39;101045.41;4996299;57;1141056;-72
2023/09/28 09:49:07;;;;;;;19.73;5.85;;;;;;;24.98;67.07;101043.19;5027995;56;1140667;-74
2023/09/28 09:54:17;;;;;;;14.40;6.55;;;;;;;25.30;67.54;101041.16;5049956;56;1140624;-73
2023/09/28 09:59:24;;;;;;;18.42;5.90;;;;;;;25.41;65.28;101037.85;5099189;56;1140942;-72
2023/09/28 10:04:31;;;;;;;13.03;5.28;;;;;;;25.69;64.58;101036.39;5079613;56;1140827;-71
2023/09/28 10:09:38;;;;;;;19.02;6.17;;;;;;;25.81;62.33;101030.70;5010639;57;1140917;-75
2023/09/28 10:14:44;;;;;;;16.30;6.20;;;;;;;25.99;62.44;101024.66;4990573;57;1141054;-74
2023/09/28 10:19:50;;;;;;;9.43;5.17;;;;;;;26.10;61.26;101031.35;4947341;57;1140777;-74
2023/09/28 10:24:57;;;;;;;15.88;5.85;;;;;;;26.14;58.27;101036.65;5088541;56;1138819;-76
2023/09/28 10:30:22;;;;;;;12.20;6.03;;;;;;;26.20;61.18;101038.54;5101043;56;1140880;-75
2023/09/28 10:35:34;;;;;;;10.95;5.95;;;;;;;26.34;57.29;101050.25;5109252;56;1140726;-74
2023/09/28 10:40:42;;;;;;;13.85;6.12;;;;;;;26.35;56.73;101058.70;5109500;56;1141135;-76
2023/09/28 10:45:48;;;;;;;18.02;5.55;;;;;;;26.34;56.05;101059.73;5127979;55;1141024;-75
2023/09/28 10:50:55;;;;;;;11.93;6.15;;;;;;;26.37;57.69;101052.02;5172909;56;1140792;-72
2023/09/28 10:56:00;;;;;;;14.95;5.25;;;;;;;26.42;58.24;101057.66;5184755;55;1140723;-73
2023/09/28 11:01:07;;;;;;;15.43;6.47;;;;;;;26.45;57.75;101050.44;5131461;55;1140755;-73
2023/09/28 11:06:12;;;;;;;7.85;5.55;;;;;;;26.62;57.30;101044.05;5015568;57;1140838;-72
2023/09/28 11:11:21;;;;;;;10.40;4.92;;;;;;;26.71;58.59;101043.33;5015547;57;1138795;-74
2023/09/28 11:16:27;;;;;;;16.67;6.42;;;;;;;26.85;56.26;101046.32;5094498;56;1141254;-76
2023/09/28 11:21:33;;;;;;;13.00;5.65;;;;;;;26.98;57.65;101037.33;5121925;55;1141050;-74
2023/09/28 11:26:40;;;;;;;19.73;5.70;;;;;;;27.15;56.37;101027.14;5185055;55;1140755;-75
2023/09/28 11:31:53;;;;;;;20.23;4.97;;;;;;;27.35;54.42;101018.88;5137898;55;1140902;-75
2023/09/28 11:36:59;;;;;;;11.08;4.95;;;;;;;27.50;54.52;101016.70;5034794;57;1140844;-72
2023/09/28 11:42:07;;;;;;;15.15;4.87;;;;;;;27.58;51.66;101012.42;5004764;57;1140845;-75
2023/09/28 11:47:13;;;;;;;7.78;4.67;;;;;;;27.74;51.62;101010.23;5004203;56;1140861;-75
2023/09/28 11:52:19;;;;;;;15.75;6.12;;;;;;;27.88;47.55;101009.08;5185422;55;1138815;-74
2023/09/28 11:57:24;;;;;;;6.37;4.10;;;;;;;28.04;49.26;100993.58;5131192;55;1140855;-73
2023/09/28 12:02:30;;;;;;;10.00;4.12;;;;;;;28.11;48.06;100993.53;5090900;56;1138757;-74
2023/09/28 12:07:36;;;;;;;18.65;4.78;;;;;;;28.31;48.78;100987.39;5099200;55;1140625;-75
2023/09/28 12:12:42;;;;;;;8.70;4.13;;;;;;;28.47;46.37;100971.02;5081861;56;1140765;-73
2023/09/28 12:17:48;;;;;;;11.50;4.60;;;;;;;28.53;44.74;100977.77;5005736;56;1138703;-72
2023/09/28 12:22:54;;;;;;;11.30;4.55;;;;;;;28.57;45.15;100975.43;5015242;56;1141132;-72
2023/09/28 12:27:59;;;;;;;16.55;4.80;;;;;;;28.66;45.78;100968.61;4912675;57;1140873;-72
2023/09/28 12:33:12;;;;;;;14.78;4.67;;;;;;;28.80;45.27;100966.07;5000719;57;1140976;-73
2023/09/28 12:38:14;;;;;;;13.93;4.58;;;;;;;28.87;41.31;100964.11;4934020;57;1140801;-74
2023/09/28 12:43:20;;;;;;;25.15;4.67;;;;;;;28.89;42.05;100961.12;4929136;57;1140950;-73
2023/09/28 12:48:26;;;;;;;10.58;4.37;;;;;;;28.87;41.84;100954.58;4940072;58;1140482;-72
2023/09/28 12:53:33;;;;;;;8.58;4.15;;;;;;;28.99;42.02;100955.99;5026103;57;1141000;-75
2023/09/28 12:58:38;;;;;;;9.73;4.05;;;;;;;28.94;40.90;100959.92;4992312;57;1158177;-75
2023/09/28 13:03:44;;;;;;;13.00;4.40;;;;;;;29.01;40.96;100955.23;4996298;56;1139141;-74
2023/09/28 13:08:50;;;;;;;10.28;4.25;;;;;;;29.14;42.74;100952.86;4997785;56;1140778;-71
2023/09/28 13:13:56;;;;;;;12.75;3.87;;;;;;;29.29;39.58;100949.19;5012189;57;1141005;-71
2023/09/28 13:19:03;;;;;;;12.40;4.47;;;;;;;29.35;38.83;100949.61;4936548;58;1140859;-72
2023/09/28 13:24:09;;;;;;;13.13;4.25;;;;;;;29.24;39.35;100941.70;4996545;57;1140684;-71
2023/09/28 13:29:17;;;;;;;10.48;4.17;;;;;;;29.25;40.38;100951.54;4983997;57;1140930;-74
2023/09/28 13:34:22;;;;;;;8.53;4.53;;;;;;;29.26;38.17;100940.11;4916793;58;1141092;-73
2023/09/28 13:39:30;;;;;;;11.78;3.72;;;;;;;29.29;38.64;100941.02;4976096;57;1138588;-73
2023/09/28 13:44:35;;;;;;;13.27;3.67;;;;;;;29.27;38.65;100937.69;5047670;56;1140960;-71
2023/09/28 13:49:41;;;;;;;14.40;5.43;;;;;;;29.28;38.02;100933.38;4956896;58;1140773;-71
2023/09/28 13:54:47;;;;;;;8.73;5.00;;;;;;;29.31;37.54;100918.46;5076649;56;1140942;-73
2023/09/28 13:59:56;;;;;;;6.62;4.05;;;;;;;29.22;38.09;100929.38;5099785;56;1138874;-73
2023/09/28 14:05:00;;;;;;;16.93;4.37;;;;;;;29.20;38.65;100927.41;5079527;56;1138907;-73
2023/09/28 14:10:07;;;;;;;8.85;4.30;;;;;;;29.15;38.74;100931.38;5079320;56;1140902;-74
2023/09/28 14:15:12;;;;;;;9.08;4.00;;;;;;;29.07;38.65;100918.06;5140010;55;1138618;-75
2023/09/28 14:20:18;;;;;;;16.10;3.72;;;;;;;28.98;38.17;100913.48;5165145;55;1138726;-73
2023/09/28 14:25:24;;;;;;;10.25;3.40;;;;;;;28.96;39.10;100919.69;5162029;56;1140802;-73
2023/09/28 14:30:30;;;;;;;6.96;3.84;;;;;;;29.02;39.30;100915.52;5025855;57;1140655;-75
2023/09/28 14:35:40;;;;;;;13.38;4.40;;;;;;;29.08;40.37;100913.75;4975175;57;1138785;-73
2023/09/28 14:40:44;;;;;;;5.43;4.03;;;;;;;29.18;40.50;100916.73;5078929;56;1140895;-71
2023/09/28 14:45:50;;;;;;;9.68;4.45;;;;;;;29.17;39.36;100920.55;5079669;56;1138659;-72
2023/09/28 14:50:56;;;;;;;15.50;4.70;;;;;;;29.06;39.52;100913.14;5020562;57;1138705;-71
2023/09/28 14:56:01;;;;;;;15.70;4.00;;;;;;;28.95;38.62;100924.30;4995601;57;1141195;-73
2023/09/28 15:01:08;;;;;;;12.40;4.55;;;;;;;28.89;38.11;100927.09;4995913;57;1140806;-73
2023/09/28 15:06:14;;;;;;;9.90;4.00;;;;;;;28.79;38.13;100926.28;5092235;56;1140938;-72
2023/09/28 15:11:24;;;;;;;12.47;4.37;;;;;;;28.76;38.75;100923.16;5079219;56;1138564;-72
2023/09/28 15:16:29;;;;;;;23.73;4.90;;;;;;;28.77;39.89;100922.09;5038019;56;1140941;-73
2023/09/28 15:21:35;;;;;;;12.05;5.60;;;;;;;28.64;39.69;100928.01;5015599;56;1141196;-72
2023/09/28 15:26:41;;;;;;;13.03;6.23;;;;;;;28.64;40.52;100928.53;5077529;56;1140670;-74
2023/09/28 15:31:47;;;;;;;13.10;5.33;;;;;;;28.49;40.75;100928.92;5077746;56;1140940;-72
2023/09/28 15:36:52;;;;;;;17.85;5.85;;;;;;;28.34;41.32;100937.98;5098003;57;1140975;-74
2023/09/28 15:41:58;;;;;;;22.77;4.93;;;;;;;28.24;41.85;100941.23;4920758;57;1140965;-71
2023/09/28 15:47:04;;;;;;;17.55;4.80;;;;;;;28.30;42.59;100944.92;4931515;57;1141120;-72
2023/09/28 15:52:09;;;;;;;30.48;10.10;;;;;;;28.88;43.39;100948.58;4989086;56;1140735;-74
2023/09/28 15:57:15;;;;;;;20.00;4.75;;;;;;;29.23;42.08;100956.92;5026652;56;1142785;-73
2023/09/28 16:02:21;;;;;;;66.35;8.70;;;;;;;28.90;43.30;100954.09;4944114;57;1140761;-73
2023/09/28 16:07:26;;;;;;;27.93;7.50;;;;;;;28.56;43.64;100961.52;4997739;57;1141018;-72
2023/09/28 16:12:32;;;;;;;22.98;5.70;;;;;;;28.41;45.86;100961.89;4994017;56;1140964;-74
2023/09/28 16:17:38;;;;;;;35.03;6.45;;;;;;;28.29;47.24;100966.38;5018235;56;1140995;-71
2023/09/28 16:22:44;;;;;;;33.05;5.65;;;;;;;28.10;48.56;100958.70;5062972;56;1140973;-73
2023/09/28 16:27:50;;;;;;;65.72;8.60;;;;;;;27.91;50.45;100965.98;5028395;57;1140737;-73
2023/09/28 16:32:56;;;;;;;83.85;10.30;;;;;;;27.61;50.23;100971.75;5038683;57;1141146;-73
2023/09/28 16:38:01;;;;;;;78.05;10.45;;;;;;;27.26;50.60;100969.94;5040181;57;1143154;-74
2023/09/28 16:43:07;;;;;;;68.10;10.48;;;;;;;26.91;50.73;100970.80;5105218;56;1142941;-71
2023/09/28 16:48:12;;;;;;;61.68;9.43;;;;;;;26.50;51.61;100969.79;4996255;57;1142960;-71
2023/09/28 16:53:18;;;;;;;47.30;10.72;;;;;;;26.16;52.37;100978.98;5043984;56;1140788;-72
2023/09/28 16:58:24;;;;;;;61.83;8.63;;;;;;;25.93;53.32;100980.26;5047100;57;1143026;-71
2023/09/28 17:03:32;;;;;;;37.80;13.40;;;;;;;25.70;54.19;100972.20;5031788;56;1141166;-71
2023/09/28 17:08:38;;;;;;;52.83;20.90;;;;;;;25.53;55.47;100975.78;5047650;56;1143103;-72
2023/09/28 17:13:44;;;;;;;53.30;23.90;;;;;;;25.34;56.37;100981.50;5017854;57;1143136;-72
2023/09/28 17:18:49;;;;;;;70.50;33.75;;;;;;;25.04;56.65;100982.86;5058979;57;1143117;-73
2023/09/28 17:23:55;;;;;;;58.98;30.72;;;;;;;24.88;58.01;100980.78;5042301;56;1142948;-71
2023/09/28 17:29:00;;;;;;;63.95;21.70;;;;;;;24.71;58.58;100978.09;5091064;56;1143020;-71
2023/09/28 17:34:06;;;;;;;55.95;21.02;;;;;;;24.52;58.78;100972.87;5043995;57;1142734;-73
2023/09/28 17:39:12;;;;;;;46.58;19.32;;;;;;;24.31;59.45;100985.10;5025170;57;1142796;-72
2023/09/28 17:44:18;;;;;;;41.85;13.32;;;;;;;24.24;60.71;100986.10;5025907;56;1142830;-73
2023/09/28 17:49:24;;;;;;;32.28;10.80;;;;;;;24.01;60.88;100993.05;5003955;57;1143110;-73
2023/09/28 17:54:30;;;;;;;18.75;10.15;;;;;;;23.88;61.99;100984.31;4854783;56;1142771;-73
2023/09/28 17:59:35;;;;;;;29.80;18.32;;;;;;;23.70;63.27;100983.94;4878838;57;1142914;-72
2023/09/28 18:04:43;;;;;;;41.75;16.80;;;;;;;23.41;64.27;100982.99;4858740;58;1143041;-75
2023/09/28 18:09:49;;;;;;;27.58;14.30;;;;;;;23.15;64.88;100984.05;4963523;56;1143110;-72
2023/09/28 18:14:55;;;;;;;21.20;11.57;;;;;;;22.96;65.63;100982.78;4866618;57;1142875;-74
2023/09/28 18:20:00;;;;;;;18.35;10.18;;;;;;;22.86;66.24;100980.06;4866353;56;1143035;-71
2023/09/28 18:25:09;;;;;;;16.87;10.53;;;;;;;22.74;66.38;100994.50;4968105;56;1142944;-73
2023/09/28 18:30:14;;;;;;;21.23;10.08;;;;;;;22.67;67.08;100996.26;4855646;57;1142740;-73
2023/09/28 18:35:21;;;;;;;17.40;6.65;;;;;;;22.62;67.67;100998.66;4860810;57;1142726;-73
2023/09/28 18:40:27;;;;;;;20.75;7.00;;;;;;;22.31;67.39;100997.47;4853027;57;1140903;-71
2023/09/28 18:45:33;;;;;;;27.15;6.50;;;;;;;22.20;68.63;100999.28;4851702;58;1140943;-73
2023/09/28 18:50:42;;;;;;;35.28;7.85;;;;;;;22.19;68.76;100996.25;4855060;57;1140814;-71
2023/09/28 18:55:48;;;;;;;16.20;7.40;;;;;;;22.15;69.30;100989.06;4979568;56;1140724;-74
2023/09/28 19:00:53;;;;;;;27.53;8.40;;;;;;;22.09;69.25;100999.22;5079370;57;1140769;-72
2023/09/28 19:05:59;;;;;;;19.05;7.22;;;;;;;22.05;69.49;100994.70;5015817;57;1141035;-72
2023/09/28 19:11:05;;;;;;;12.58;6.78;;;;;;;21.95;69.27;100998.64;5020049;57;1141038;-71
2023/09/28 19:16:10;;;;;;;12.93;6.33;;;;;;;21.79;69.48;101000.95;4947696;57;1140761;-74
2023/09/28 19:21:16;;;;;;;10.45;6.12;;;;;;;21.67;69.98;101004.58;4991018;57;1140830;-72
2023/09/28 19:26:22;;;;;;;11.03;7.12;;;;;;;21.53;70.26;101010.73;4915060;57;1140850;-74
2023/09/28 19:31:31;;;;;;;10.38;6.83;;;;;;;21.49;71.26;101011.27;4984803;58;1140958;-71
2023/09/28 19:36:37;;;;;;;15.80;7.35;;;;;;;21.52;71.93;101009.05;4983506;57;1140728;-71
2023/09/28 19:41:42;;;;;;;19.62;8.55;;;;;;;21.52;71.81;101009.05;4877667;58;1141412;-71
2023/09/28 19:46:48;;;;;;;18.43;7.67;;;;;;;21.47;71.43;101010.59;4865338;58;1141098;-70
2023/09/28 19:51:55;;;;;;;10.45;6.37;;;;;;;21.41;71.41;101016.17;4937397;58;1140871;-71
2023/09/28 19:57:00;;;;;;;12.50;6.47;;;;;;;21.24;71.42;101012.73;4996342;56;1141051;-72
2023/09/28 20:02:06;;;;;;;16.95;7.28;;;;;;;21.12;71.60;101012.77;5070452;56;1141076;-71
2023/09/28 20:07:12;;;;;;;16.93;8.23;;;;;;;21.04;71.91;101011.47;4964817;57;1140832;-72
2023/09/28 20:12:18;;;;;;;16.48;7.47;;;;;;;20.94;72.20;101010.31;4998394;56;1140832;-72
2023/09/28 20:17:24;;;;;;;10.20;7.20;;;;;;;20.85;72.29;101011.88;4996640;57;1140623;-72
2023/09/28 20:22:31;;;;;;;20.27;7.87;;;;;;;20.77;72.52;101012.76;4935147;57;1141206;-71
2023/09/28 20:27:37;;;;;;;12.23;8.03;;;;;;;20.68;72.91;101007.06;5016366;57;1140767;-74
2023/09/28 20:32:43;;;;;;;17.40;7.33;;;;;;;20.59;72.79;101009.45;4919870;58;1140944;-72
2023/09/28 20:37:49;;;;;;;24.43;6.97;;;;;;;20.49;72.70;101008.78;5065000;57;1140842;-72
2023/09/28 20:42:54;;;;;;;31.57;7.83;;;;;;;20.31;72.39;101004.44;5155181;56;1140713;-72
2023/09/28 20:48:00;;;;;;;24.05;7.87;;;;;;;20.15;72.92;101003.62;5004109;56;1140765;-72
2023/09/28 20:53:06;;;;;;;16.07;8.43;;;;;;;20.13;73.73;101002.44;5061735;56;1141004;-72
2023/09/28 20:58:12;;;;;;;15.20;6.80;;;;;;;20.00;73.20;100997.59;5020223;56;1140620;-71
2023/09/28 21:03:17;;;;;;;11.53;6.72;;;;;;;19.78;72.76;101006.80;5056314;56;1140843;-71
2023/09/28 21:08:23;;;;;;;16.32;7.33;;;;;;;19.61;73.80;101000.57;5028089;56;1140706;-71
2023/09/28 21:13:30;;;;;;;12.33;6.83;;;;;;;19.63;74.89;101006.11;5058111;57;1140958;-71
2023/09/28 21:18:35;;;;;;;13.08;6.50;;;;;;;19.48;74.17;101002.87;5079161;56;1140693;-71
2023/09/28 21:23:40;;;;;;;8.85;6.62;;;;;;;19.17;74.76;101009.33;5163728;55;1140923;-71
2023/09/28 21:28:46;;;;;;;15.42;6.98;;;;;;;19.07;75.76;101005.45;5078351;56;1138709;-72
2023/09/28 21:33:52;;;;;;;12.80;7.75;;;;;;;19.04;76.58;100993.70;5095974;57;1140880;-71
2023/09/28 21:38:58;;;;;;;16.85;7.67;;;;;;;18.96;76.60;100996.33;4916043;58;1140682;-71
2023/09/28 21:44:04;;;;;;;11.75;7.22;;;;;;;18.91;77.08;100991.48;4940722;57;1140953;-70
2023/09/28 21:49:10;;;;;;;14.73;7.20;;;;;;;18.89;77.34;100980.58;5016085;57;1140982;-73
2023/09/28 21:54:15;;;;;;;14.28;6.17;;;;;;;18.85;77.11;100993.45;5026778;56;1140888;-72
2023/09/28 21:59:21;;;;;;;15.05;6.37;;;;;;;18.73;77.00;100992.56;4995554;56;1140896;-72
2023/09/28 22:04:26;;;;;;;14.90;7.25;;;;;;;18.57;77.22;100998.64;5013827;56;1140519;-71
2023/09/28 22:09:32;;;;;;;13.72;7.47;;;;;;;18.37;77.30;100999.84;4996745;56;1140825;-72
2023/09/28 22:14:38;;;;;;;11.12;7.40;;;;;;;18.43;78.55;101000.07;4996318;56;1140743;-71
2023/09/28 22:19:43;;;;;;;15.18;7.68;;;;;;;18.45;78.56;101006.11;4995931;56;1140696;-71
2023/09/28 22:24:49;;;;;;;14.47;6.90;;;;;;;18.51;79.06;101010.82;5015569;56;1141095;-72
2023/09/28 22:29:55;;;;;;;15.93;7.03;;;;;;;18.55;78.52;101004.16;4996854;56;1140898;-72
2023/09/28 22:35:01;;;;;;;18.40;7.63;;;;;;;18.55;78.36;101008.67;4996683;57;1140652;-73
2023/09/28 22:40:08;;;;;;;15.53;7.62;;;;;;;18.52;78.06;101006.30;5026498;56;1140771;-71
2023/09/28 22:45:13;;;;;;;11.45;7.22;;;;;;;18.40;77.50;101003.06;5002502;56;1140757;-71